Airfield :
LOGIN :

Register | Disclaimer

   EN    FR    IT 

 










Legend :    VFR   Marginal VFR   IFR   Intensive IFR   Very Intensive IFR
Visi :
Ceiling :
>= 8 km
>= 3000ft
5 to 8 km
1000 to 3000 ft
1500m to 5 km
500 to 1000 ft
800 to 1500m
200 to 500 ft
< 800m
< 200 ft
Symbols :   Thunderstorms  Fog  Heavy snow  Heavy precipitations  Wind > 20 kt
SIGMETs :     Misc.  Thunderstorms  Icing  Turbulence  Mountain Waves  Volcanic Ashes







- Airport Elevation : 37 ft
- IATA code : OLB


LIEO - Olbia Costa Smeralda

CURRENT METAR :
  • 250150Z 19003KT 110V250 CAVOK 17/16 Q1014

EXPIRED METARs :
  • 250120Z 21003KT 180V260 CAVOK 17/15 Q1014
  • 250050Z 26004KT CAVOK 17/16 Q1015
  • 250020Z 21003KT 180V240 CAVOK 17/16 Q1015
  • 242350Z 22005KT CAVOK 18/16 Q1015
  • 242320Z 22006KT CAVOK 18/16 Q1015

TAF TAF LIEO
Valid from the 25 at 00:00 until the 26 at 00:00 UTC


242300Z 2500/2524 VRB05KT 9999 SCT025
BECMG 2506/2508 09012KT
TEMPO 2515/2518 TSRA
No reported NOTAMs for that airfield.
4 SIGMETs reported for the Roma FIR (LIRR) :
 
Embedded thunderstorms
LIRR SIGMET 2 VALID 250200/250500 LIIB
LIRR ROMA FIR EMBD TS FCST WI N3924 E01243 - N3814 E01144 - N3645 E01256 - N3631 E01518 - N3854 E01637 - N3949 E01543 - N3958 E01414 - N3924 E01243 TOP FL390 STNR NC=
Embedded thunderstorms
LIRR SIGMET 12 VALID 242300/250200 LIIB
LIRR ROMA FIR EMBD TS FCST WI N3839 E01235 - N3746 E01252 - N3740 E01525 - N3854 E01638 - N3949 E01543 - N3853 E01455 - N3839 E01235 TOP FL390 STNR NC=
Severe turbulence
LIRR SIGMET 11 VALID 242300/250200 LIIB
LIRR ROMA FIR SEV TURB FCST WI N4335 E01018 - N4043 E00959 - N3945 E00937 - N3748 E01219 - N3716 E01530 - N3635 E01708 - N3625 E01131 - N3731 E01135 - N3904 E00800 - N4107 E00802 - N4118 E00819 - N4121 E00943 - N4307 E00946 - N4335 E01018 FL280/370 STNR NC=
Severe turbulence
LIRR SIGMET 1 VALID 250200/250500 LIIB
LIRR ROMA FIR SEV TURB FCST WI N4334 E01018 - N4342 E01117 - N4326 E01329 - N4121 E01117 - N3949 E01105 - N3753 E01239 - N3725 E01539 - N3629 E01721 - N3625 E01131 - N3731 E01134 - N3904 E00800 - N4107 E00801 - N4118 E00819 - N4121 E00943 - N4307 E00946 - N4334 E01018 FL250/370 STNR NC=



MET'MAP, your aeronautical weather chart ! - Copyright ORBIFLY December 2007 - Disclaimer

ORBIFLY MET'MAP TEAM :

Programming & Development : Alexandra Zaïnal
Concept & Development : Baudouin d'Aumeries
Co-Development & Prog : Marc-Olivier Méhu
Technical & hardware support : Manuel Goepfert

Contact : metmap@orbifly.com




SOURCES & CREDITS :

   NOAA